createdAt,value
2022-08-18T00:00:06.742Z,96875.09
2022-08-18T00:02:43.442Z,96876.44
2022-08-18T00:05:21.265Z,96876.38
2022-08-18T00:07:49.629Z,96879.88
2022-08-18T00:10:18.990Z,96877.03
2022-08-18T00:12:48.895Z,96866.28
2022-08-18T00:15:19.127Z,96854.47
2022-08-18T00:17:48.116Z,96841.25
2022-08-18T00:20:19.107Z,96827.63
2022-08-18T00:22:47.997Z,96825.75
2022-08-18T00:25:18.016Z,96825.75
2022-08-18T00:27:47.794Z,96831.31
2022-08-18T00:30:18.258Z,96841.00
2022-08-18T00:32:50.332Z,96853.25
2022-08-18T00:35:20.945Z,96862.16
2022-08-18T00:37:50.265Z,96862.97
2022-08-18T00:40:21.720Z,96854.53
2022-08-18T00:42:54.954Z,96847.50
2022-08-18T00:45:27.132Z,96859.09
2022-08-18T00:47:56.400Z,96862.22
2022-08-18T00:50:28.467Z,96851.44
2022-08-18T00:52:59.923Z,96848.97
2022-08-18T00:55:29.400Z,96846.91
2022-08-18T00:58:03.667Z,96828.31
2022-08-18T01:00:33.168Z,96836.16
2022-08-18T01:03:05.426Z,96841.75
2022-08-18T01:05:40.788Z,96849.63
2022-08-18T01:08:11.972Z,96847.75
2022-08-18T01:10:40.618Z,96836.16
2022-08-18T01:13:10.761Z,96834.13
2022-08-18T01:15:39.304Z,96836.59
2022-08-18T01:18:28.854Z,96834.13
2022-08-18T01:21:36.887Z,96818.22
2022-08-18T01:24:08.690Z,96813.44
2022-08-18T01:26:45.598Z,96808.94
2022-08-18T01:29:18.867Z,96811.41
2022-08-18T01:31:54.731Z,96803.94
2022-08-18T01:34:25.226Z,96802.53
2022-08-18T01:36:55.019Z,96794.69
2022-08-18T01:40:59.816Z,96801.25
2022-08-18T01:42:16.874Z,96787.00
2022-08-18T01:44:46.289Z,96779.16
2022-08-18T01:47:15.301Z,96773.16
2022-08-18T01:49:43.760Z,96776.31
2022-08-18T01:52:13.073Z,96776.31
2022-08-18T01:54:42.894Z,96771.75
2022-08-18T01:57:13.454Z,96767.84
2022-08-18T01:59:41.967Z,96764.13
2022-08-18T02:02:12.353Z,96757.31
2022-08-18T02:04:47.555Z,96745.75
2022-08-18T02:07:16.077Z,96756.75
2022-08-18T02:09:51.107Z,96747.25
2022-08-18T02:12:20.366Z,96741.28
2022-08-18T02:14:50.490Z,96734.47
2022-08-18T02:17:19.720Z,96729.94
2022-08-18T02:19:48.918Z,96734.47
2022-08-18T02:22:19.917Z,96731.19
2022-08-18T02:24:50.263Z,96722.91
2022-08-18T02:27:18.867Z,96723.50
2022-08-18T02:29:47.391Z,96736.13
2022-08-18T02:32:15.914Z,96728.06
2022-08-18T02:34:44.399Z,96734.03
2022-08-18T02:37:15.295Z,96731.78
2022-08-18T02:39:44.330Z,96735.31
2022-08-18T02:42:14.723Z,96736.13
2022-08-18T02:44:43.535Z,96746.06
2022-08-18T02:47:12.215Z,96747.09
2022-08-18T02:49:40.747Z,96754.34
2022-08-18T02:52:10.311Z,96756.44
2022-08-18T02:54:39.163Z,96755.38
2022-08-18T02:57:10.680Z,96762.63
2022-08-18T02:59:41.499Z,96775.69
2022-08-18T03:02:10.771Z,96774.41
2022-08-18T03:04:39.234Z,96779.19
2022-08-18T03:07:09.278Z,96778.59
2022-08-18T03:09:37.998Z,96769.47
2022-08-18T03:12:08.581Z,96773.00
2022-08-18T03:14:37.327Z,96786.66
2022-08-18T03:17:08.918Z,96793.06
2022-08-18T03:19:37.770Z,96788.34
2022-08-18T03:22:24.398Z,96785.66
2022-08-18T03:24:55.919Z,96785.88
2022-08-18T03:27:24.383Z,96786.94
2022-08-18T03:29:53.530Z,96791.03
2022-08-18T03:32:23.397Z,96774.91
2022-08-18T03:34:52.106Z,96774.91
2022-08-18T03:37:20.485Z,96777.00
2022-08-18T03:39:51.800Z,96780.13
2022-08-18T03:42:20.327Z,96774.75
2022-08-18T03:44:48.768Z,96769.38
2022-08-18T03:47:17.588Z,96763.41
2022-08-18T03:49:48.912Z,96760.72
2022-08-18T03:52:17.503Z,96764.44
2022-08-18T03:54:46.585Z,96763.84
2022-08-18T03:57:14.980Z,96773.53
2022-08-18T03:59:43.768Z,96773.75
2022-08-18T04:02:12.672Z,96773.97
2022-08-18T04:04:42.904Z,96769.66
2022-08-18T04:07:16.986Z,96769.22
2022-08-18T04:09:45.825Z,96776.66
2022-08-18T04:12:17.282Z,96776.44
2022-08-18T04:14:48.876Z,96765.91
2022-08-18T04:17:20.331Z,96768.81
2022-08-18T04:19:48.774Z,96769.88
2022-08-18T04:22:18.685Z,96760.97
2022-08-18T04:24:48.135Z,96764.72
2022-08-18T04:27:18.699Z,96762.00
2022-08-18T04:29:49.093Z,96773.59
2022-08-18T04:32:18.344Z,96766.19
2022-08-18T04:34:46.818Z,96763.94
2022-08-18T04:37:16.346Z,96776.03
2022-08-18T04:39:46.680Z,96781.53
2022-08-18T04:42:15.485Z,96782.38
2022-08-18T04:44:44.068Z,96775.97
2022-08-18T04:47:13.252Z,96777.03
2022-08-18T04:49:43.759Z,96777.94
2022-08-18T04:52:38.637Z,96785.16
2022-08-18T04:55:12.116Z,96777.13
2022-08-18T04:57:42.645Z,96782.47
2022-08-18T05:00:13.108Z,96779.81
2022-08-18T05:02:41.614Z,96775.72
2022-08-18T05:05:11.133Z,96772.56
2022-08-18T05:07:45.811Z,96761.47
2022-08-18T05:10:18.134Z,96766.66
2022-08-18T05:12:48.515Z,96776.31
2022-08-18T05:15:17.825Z,96789.13
2022-08-18T05:17:46.357Z,96791.59
2022-08-18T05:20:20.112Z,96784.78
2022-08-18T05:22:48.546Z,96802.31
2022-08-18T05:25:18.495Z,96807.44
2022-08-18T05:27:46.935Z,96821.63
2022-08-18T05:30:15.509Z,96822.78
2022-08-18T05:32:48.990Z,96815.69
2022-08-18T05:35:23.375Z,96818.38
2022-08-18T05:38:05.119Z,96824.34
2022-08-18T05:40:36.271Z,96827.66
2022-08-18T05:43:06.030Z,96838.78
2022-08-18T05:45:35.381Z,96835.88
2022-08-18T05:48:04.193Z,96839.59
2022-08-18T05:50:33.951Z,96850.50
2022-08-18T05:53:13.379Z,96852.72
2022-08-18T05:56:06.040Z,96851.13
2022-08-18T05:58:37.866Z,96858.16
2022-08-18T06:01:16.653Z,96849.75
2022-08-18T06:03:48.878Z,96850.03
2022-08-18T06:06:20.065Z,96846.97
2022-08-18T06:08:54.004Z,96850.47
2022-08-18T06:11:23.941Z,96857.00
2022-08-18T06:13:59.626Z,96844.25
2022-08-18T06:16:39.959Z,96832.28
2022-08-18T06:19:21.689Z,96843.25
2022-08-18T06:21:56.972Z,96847.44
2022-08-18T06:24:32.911Z,96848.56
2022-08-18T06:27:08.585Z,96838.03
2022-08-18T06:29:47.719Z,96841.34
2022-08-18T06:32:20.963Z,96846.38
2022-08-18T06:34:58.104Z,96841.09
2022-08-18T06:37:32.453Z,96833.06
2022-08-18T06:40:02.212Z,96850.81
2022-08-18T06:42:32.122Z,96848.16
2022-08-18T06:45:02.793Z,96865.41
2022-08-18T06:47:40.751Z,96855.28
2022-08-18T06:50:12.837Z,96850.16
2022-08-18T06:52:53.184Z,96854.28
2022-08-18T06:55:33.737Z,96857.13
2022-08-18T06:58:05.550Z,96868.50
2022-08-18T07:00:36.548Z,96872.44
2022-08-18T07:03:07.897Z,96868.84
2022-08-18T07:05:37.578Z,96853.88
2022-08-18T07:08:11.540Z,96851.47
2022-08-18T07:10:42.157Z,96843.38
2022-08-18T07:13:25.493Z,96846.00
2022-08-18T07:15:55.027Z,96841.06
2022-08-18T07:18:26.667Z,96839.81
2022-08-18T07:20:57.687Z,96852.19
2022-08-18T07:23:30.987Z,96859.44
2022-08-18T07:26:04.262Z,96867.41
2022-08-18T07:28:37.685Z,96868.81
2022-08-18T07:31:18.310Z,96859.81
2022-08-18T07:33:52.525Z,96847.63
2022-08-18T07:36:22.574Z,96853.06
2022-08-18T07:38:53.432Z,96838.69
2022-08-18T07:41:26.164Z,96840.69
2022-08-18T07:44:07.508Z,96828.78
2022-08-18T07:46:41.165Z,96831.97
2022-08-18T07:49:09.621Z,96817.97
2022-08-18T07:51:46.352Z,96816.34
2022-08-18T07:54:48.151Z,96814.94
2022-08-18T07:57:20.254Z,96811.44
2022-08-18T07:59:57.465Z,96807.28
2022-08-18T08:02:50.488Z,96808.31
2022-08-18T08:05:37.397Z,96802.56
2022-08-18T08:08:15.305Z,96799.72
2022-08-18T08:11:04.170Z,96806.84
2022-08-18T08:13:54.797Z,96812.53
2022-08-18T08:16:35.429Z,96805.44
2022-08-18T08:19:12.245Z,96793.97
2022-08-18T08:21:52.913Z,96783.06
2022-08-18T08:24:26.477Z,96782.66
2022-08-18T08:27:00.273Z,96780.97
2022-08-18T08:29:38.517Z,96782.25
2022-08-18T08:32:13.176Z,96782.03
2022-08-18T08:34:44.115Z,96782.25
2022-08-18T08:37:18.369Z,96796.66
2022-08-18T08:39:51.153Z,96800.19
2022-08-18T08:42:31.986Z,96798.75
2022-08-18T08:45:05.446Z,96793.59
2022-08-18T08:47:38.123Z,96791.38
2022-08-18T08:50:10.757Z,96787.25
2022-08-18T08:52:41.585Z,96786.66
2022-08-18T08:55:14.626Z,96784.81
2022-08-18T08:57:48.923Z,96788.50
2022-08-18T09:00:17.534Z,96793.44
2022-08-18T09:02:59.365Z,96776.34
2022-08-18T09:05:30.138Z,96784.19
2022-08-18T09:08:11.442Z,96765.44
2022-08-18T09:11:02.726Z,96763.78
2022-08-18T09:13:50.680Z,96757.41
2022-08-18T09:16:29.597Z,96754.47
2022-08-18T09:19:21.050Z,96762.50
2022-08-18T09:21:55.347Z,96755.94
2022-08-18T09:24:26.790Z,96760.69
2022-08-18T09:27:14.903Z,96762.53
2022-08-18T09:29:51.078Z,96769.97
2022-08-18T09:32:50.103Z,96771.38
2022-08-18T09:35:37.144Z,96759.63
2022-08-18T09:38:27.897Z,96749.53
2022-08-18T09:41:17.535Z,96742.72
2022-08-18T09:47:01.326Z,96737.75
2022-08-18T09:49:47.908Z,96742.34
2022-08-18T09:52:55.726Z,96747.66
2022-08-18T09:56:01.421Z,96743.53
2022-08-18T09:58:56.634Z,96767.63
2022-08-18T10:01:40.116Z,96767.03
2022-08-18T10:04:33.726Z,96779.03
2022-08-18T10:07:20.391Z,96783.53
2022-08-18T10:09:56.460Z,96786.63
2022-08-18T10:12:37.443Z,96773.41
2022-08-18T10:15:33.809Z,96775.47
2022-08-18T10:18:27.624Z,96765.56
2022-08-18T10:21:04.878Z,96761.03
2022-08-18T10:24:08.481Z,96760.41
2022-08-18T10:27:08.844Z,96747.22
2022-08-18T10:29:56.421Z,96747.16
2022-08-18T10:32:37.722Z,96740.34
2022-08-18T10:35:07.624Z,96742.91
2022-08-18T10:37:40.143Z,96736.69
2022-08-18T10:40:18.489Z,96735.41
2022-08-18T10:42:53.616Z,96739.88
2022-08-18T10:45:26.754Z,96735.94
2022-08-18T10:48:16.844Z,96731.38
2022-08-18T10:50:52.727Z,96726.75
2022-08-18T10:53:44.282Z,96724.91
2022-08-18T10:59:28.637Z,96725.84
2022-08-18T11:02:07.030Z,96712.88
2022-08-18T11:04:39.102Z,96704.94
2022-08-18T11:07:11.450Z,96697.94
2022-08-18T11:09:42.175Z,96696.03
2022-08-18T11:12:46.707Z,96700.34
2022-08-18T11:15:24.150Z,96700.84
2022-08-18T11:18:05.462Z,96695.22
2022-08-18T11:20:40.611Z,96702.53
2022-08-18T11:23:14.869Z,96708.72
2022-08-18T11:25:44.799Z,96707.81
2022-08-18T11:28:18.649Z,96706.81
2022-08-18T11:30:49.451Z,96699.34
2022-08-18T11:33:23.034Z,96697.22
2022-08-18T11:35:57.872Z,96689.94
2022-08-18T11:38:29.492Z,96688.25
2022-08-18T11:41:13.612Z,96686.56
2022-08-18T11:43:47.367Z,96679.53
2022-08-18T11:46:28.324Z,96677.69
2022-08-18T11:49:24.176Z,96671.19
2022-08-18T11:52:02.591Z,96679.94
2022-08-18T11:54:39.518Z,96682.22
2022-08-18T11:57:33.326Z,96685.56
2022-08-18T12:00:54.715Z,96677.06
2022-08-18T12:03:32.515Z,96671.91
2022-08-18T12:06:19.485Z,96656.91
2022-08-18T12:08:57.023Z,96638.53
2022-08-18T12:11:29.802Z,96632.09
2022-08-18T12:16:54.066Z,96637.22
2022-08-18T12:19:24.226Z,96629.97
2022-08-18T12:22:18.070Z,96618.78
2022-08-18T12:27:36.148Z,96610.34
2022-08-18T12:30:06.660Z,96599.03
2022-08-18T12:32:46.855Z,96592.41
2022-08-18T12:35:22.034Z,96590.47
2022-08-18T12:38:03.339Z,96577.53
2022-08-18T12:40:41.020Z,96559.09
2022-08-18T12:43:09.518Z,96561.75
2022-08-18T12:45:39.580Z,96558.78
2022-08-18T12:48:10.479Z,96568.72
2022-08-18T12:50:49.638Z,96562.66
2022-08-18T12:56:20.767Z,96560.78
2022-08-18T12:58:49.737Z,96555.69
2022-08-18T13:01:19.159Z,96558.38
2022-08-18T13:04:05.206Z,96557.09
2022-08-18T13:06:40.837Z,96574.66
2022-08-18T13:09:16.768Z,96575.47
2022-08-18T13:12:04.485Z,96571.16
2022-08-18T13:14:33.284Z,96576.31
2022-08-18T13:17:01.935Z,96574.31
2022-08-18T13:19:31.973Z,96575.63
2022-08-18T13:22:00.739Z,96555.84
2022-08-18T13:24:30.543Z,96556.56
2022-08-18T13:26:59.095Z,96556.66
2022-08-18T13:29:27.928Z,96547.41
2022-08-18T13:31:59.498Z,96540.50
2022-08-18T13:34:29.915Z,96539.34
2022-08-18T13:36:58.778Z,96539.34
2022-08-18T13:39:31.395Z,96543.09
2022-08-18T13:42:21.776Z,96545.06
2022-08-18T13:44:55.072Z,96538.69
2022-08-18T13:47:29.200Z,96532.34
2022-08-18T13:49:59.913Z,96527.41
2022-08-18T13:52:41.215Z,96522.84
2022-08-18T13:55:16.779Z,96522.66
2022-08-18T13:57:49.946Z,96532.72
2022-08-18T14:00:29.431Z,96525.00
2022-08-18T14:03:03.225Z,96527.44
2022-08-18T14:05:36.590Z,96527.44
2022-08-18T14:08:20.354Z,96533.44
2022-08-18T14:10:50.866Z,96532.97
2022-08-18T14:13:24.437Z,96538.81
2022-08-18T14:15:54.941Z,96525.34
2022-08-18T14:18:28.923Z,96516.91
2022-08-18T14:21:22.932Z,96502.75
2022-08-18T14:24:10.229Z,96484.97
2022-08-18T14:26:51.143Z,96492.44
2022-08-18T14:29:46.511Z,96490.00
2022-08-18T14:32:17.840Z,96488.72
2022-08-18T14:34:50.654Z,96490.56
2022-08-18T14:37:20.204Z,96494.09
2022-08-18T14:39:50.287Z,96491.97
2022-08-18T14:42:21.420Z,96494.78
2022-08-18T14:45:26.590Z,96484.50
2022-08-18T14:48:04.467Z,96488.59
2022-08-18T14:50:36.961Z,96485.06
2022-08-18T14:53:06.285Z,96471.50
2022-08-18T14:55:34.949Z,96469.63
2022-08-18T14:58:07.267Z,96458.03
2022-08-18T15:00:53.480Z,96460.03
2022-08-18T15:03:28.336Z,96459.66
2022-08-18T15:06:04.649Z,96456.75
2022-08-18T15:08:35.589Z,96443.88
2022-08-18T15:11:06.156Z,96440.94
2022-08-18T15:13:42.342Z,96442.00
2022-08-18T15:16:13.610Z,96446.31
2022-08-18T15:18:42.259Z,96450.41
2022-08-18T15:21:34.963Z,96450.19
2022-08-18T15:24:30.387Z,96445.38
2022-08-18T15:27:05.523Z,96441.41
2022-08-18T15:29:35.387Z,96441.63
2022-08-18T15:32:10.287Z,96440.56
2022-08-18T15:34:47.342Z,96435.44
2022-08-18T15:37:22.299Z,96444.31
2022-08-18T15:40:05.579Z,96442.69
2022-08-18T15:42:34.133Z,96441.75
2022-08-18T15:45:12.135Z,96442.22
2022-08-18T15:47:43.941Z,96439.88
2022-08-18T15:50:25.480Z,96440.22
2022-08-18T15:52:57.771Z,96443.63
2022-08-18T15:55:28.905Z,96445.97
2022-08-18T15:57:58.153Z,96440.56
2022-08-18T16:00:29.868Z,96445.38
2022-08-18T16:03:02.387Z,96447.13
2022-08-18T16:05:35.320Z,96441.16
2022-08-18T16:08:06.002Z,96444.91
2022-08-18T16:10:36.827Z,96450.06
2022-08-18T16:13:06.657Z,96441.63
2022-08-18T16:15:38.070Z,96446.19
2022-08-18T16:18:10.608Z,96442.44
2022-08-18T16:20:39.440Z,96440.34
2022-08-18T16:23:08.653Z,96442.44
2022-08-18T16:25:39.111Z,96435.44
2022-08-18T16:28:07.888Z,96436.25
2022-08-18T16:30:37.065Z,96440.81
2022-08-18T16:33:09.017Z,96429.00
2022-08-18T16:35:38.203Z,96425.47
2022-08-18T16:38:08.709Z,96429.22
2022-08-18T16:40:37.709Z,96428.63
2022-08-18T16:43:07.175Z,96413.19
2022-08-18T16:45:37.740Z,96424.78
2022-08-18T16:48:07.344Z,96419.88
2022-08-18T16:50:39.189Z,96426.88
2022-08-18T16:53:07.652Z,96413.44
2022-08-18T16:55:36.174Z,96422.91
2022-08-18T16:58:23.835Z,96421.50
2022-08-18T17:01:21.102Z,96413.31
2022-08-18T17:04:14.803Z,96425.38
2022-08-18T17:06:51.064Z,96422.44
2022-08-18T17:09:20.625Z,96426.06
2022-08-18T17:11:52.066Z,96430.41
2022-08-18T17:14:22.133Z,96424.56
2022-08-18T17:16:55.016Z,96422.91
2022-08-18T17:19:24.970Z,96423.16
2022-08-18T17:21:54.944Z,96427.72
2022-08-18T17:24:31.144Z,96425.03
2022-08-18T17:27:22.375Z,96427.94
2022-08-18T17:30:01.672Z,96424.44
2022-08-18T17:35:14.696Z,96426.41
2022-08-18T17:37:49.236Z,96414.22
2022-08-18T17:40:21.214Z,96419.38
2022-08-18T17:42:51.726Z,96417.75
2022-08-18T17:45:21.998Z,96422.31
2022-08-18T17:47:56.053Z,96425.22
2022-08-18T17:50:45.294Z,96433.06
2022-08-18T17:53:15.730Z,96422.81
2022-08-18T17:55:46.899Z,96422.44
2022-08-18T17:58:20.420Z,96439.66
2022-08-18T18:00:48.850Z,96440.59
2022-08-18T18:03:17.428Z,96445.72
2022-08-18T18:05:51.204Z,96453.81
2022-08-18T18:08:21.287Z,96445.97
2022-08-18T18:11:07.653Z,96449.13
2022-08-18T18:13:36.189Z,96446.78
2022-08-18T18:16:22.548Z,96452.81
2022-08-18T18:19:00.866Z,96449.34
2022-08-18T18:21:55.395Z,96457.97
2022-08-18T18:24:31.098Z,96455.75
2022-08-18T18:26:59.948Z,96454.25
2022-08-18T18:29:35.692Z,96455.66
2022-08-18T18:32:08.121Z,96457.28
2022-08-18T18:34:39.674Z,96454.81
2022-08-18T18:37:25.437Z,96455.06
2022-08-18T18:39:59.751Z,96461.09
2022-08-18T18:42:30.304Z,96469.41
2022-08-18T18:45:00.381Z,96492.25
2022-08-18T18:47:40.114Z,96492.25
2022-08-18T18:50:11.617Z,96500.22
2022-08-18T18:52:44.931Z,96498.22
2022-08-18T18:55:18.237Z,96505.78
2022-08-18T18:57:53.132Z,96500.75
2022-08-18T19:00:27.513Z,96503.84
2022-08-18T19:03:07.660Z,96508.09
2022-08-18T19:05:39.553Z,96502.59
2022-08-18T19:08:21.141Z,96506.22
2022-08-18T19:11:07.341Z,96517.72
2022-08-18T19:13:39.351Z,96515.50
2022-08-18T19:16:23.809Z,96514.69
2022-08-18T19:19:35.199Z,96519.06
2022-08-18T19:22:03.698Z,96521.53
2022-08-18T19:24:39.809Z,96522.44
2022-08-18T19:27:23.441Z,96529.44
2022-08-18T19:29:55.900Z,96533.78
2022-08-18T19:32:32.368Z,96534.97
2022-08-18T19:35:04.500Z,96534.59
2022-08-18T19:37:54.370Z,96534.31
2022-08-18T19:40:30.362Z,96530.16
2022-08-18T19:43:02.909Z,96537.63
2022-08-18T19:45:36.068Z,96537.69
2022-08-18T19:48:13.089Z,96546.44
2022-08-18T19:50:47.832Z,96545.06
2022-08-18T19:53:29.441Z,96555.22
2022-08-18T19:56:10.719Z,96560.13
2022-08-18T19:59:19.386Z,96567.81
2022-08-18T20:01:58.745Z,96559.63
2022-08-18T20:04:39.796Z,96557.16
2022-08-18T20:07:31.380Z,96564.69
2022-08-18T20:10:09.707Z,96566.13
2022-08-18T20:12:55.609Z,96571.03
2022-08-18T20:15:28.476Z,96560.75
2022-08-18T20:18:07.785Z,96562.75
2022-08-18T20:20:38.593Z,96569.56
2022-08-18T20:23:32.644Z,96572.84
2022-08-18T20:26:01.345Z,96575.53
2022-08-18T20:28:39.389Z,96569.78
2022-08-18T20:31:15.231Z,96571.94
2022-08-18T20:33:47.237Z,96579.53
2022-08-18T20:36:28.863Z,96576.53
2022-08-18T20:38:58.629Z,96585.97
2022-08-18T20:41:47.199Z,96587.59
2022-08-18T20:44:29.895Z,96586.13
2022-08-18T20:47:10.572Z,96587.97
2022-08-18T20:49:46.824Z,96602.06
2022-08-18T20:52:29.465Z,96599.44
2022-08-18T20:55:09.475Z,96604.00
2022-08-18T20:57:41.351Z,96595.34
2022-08-18T21:00:14.644Z,96596.97
2022-08-18T21:02:50.498Z,96593.34
2022-08-18T21:05:28.287Z,96600.88
2022-08-18T21:08:04.665Z,96610.09
2022-08-18T21:10:34.818Z,96605.22
2022-08-18T21:13:05.674Z,96620.94
2022-08-18T21:15:37.166Z,96623.19
2022-08-18T21:18:11.086Z,96629.16
2022-08-18T21:20:40.536Z,96633.34
2022-08-18T21:23:11.000Z,96642.22
2022-08-18T21:25:48.448Z,96660.41
2022-08-18T21:28:18.233Z,96656.47
2022-08-18T21:30:56.329Z,96662.00
2022-08-18T21:33:50.319Z,96668.84
2022-08-18T21:36:20.378Z,96673.91
2022-08-18T21:38:58.518Z,96680.91
2022-08-18T21:41:42.164Z,96682.53
2022-08-18T21:44:17.240Z,96681.47
2022-08-18T21:46:47.029Z,96680.88
2022-08-18T21:49:25.628Z,96673.06
2022-08-18T21:51:54.773Z,96668.53
2022-08-18T21:54:25.866Z,96671.59
2022-08-18T21:57:19.398Z,96668.94
2022-08-18T22:00:15.112Z,96665.81
2022-08-18T22:02:43.706Z,96669.09
2022-08-18T22:05:14.072Z,96672.22
2022-08-18T22:07:51.348Z,96664.81
2022-08-18T22:10:43.224Z,96671.81
2022-08-18T22:13:41.430Z,96674.09
2022-08-18T22:16:29.521Z,96674.91
2022-08-18T22:19:10.096Z,96673.47
2022-08-18T22:21:43.330Z,96672.22
2022-08-18T22:24:21.533Z,96676.97
2022-08-18T22:26:54.315Z,96682.97
2022-08-18T22:29:27.939Z,96679.41
2022-08-18T22:31:56.768Z,96672.72
2022-08-18T22:34:28.566Z,96677.66
2022-08-18T22:37:00.673Z,96679.91
2022-08-18T22:39:32.866Z,96683.44
2022-08-18T22:42:01.674Z,96682.38
2022-08-18T22:44:30.320Z,96683.22
2022-08-18T22:46:59.048Z,96684.84
2022-08-18T22:49:27.767Z,96682.16
2022-08-18T22:51:58.194Z,96675.97
2022-08-18T22:54:27.038Z,96675.16
2022-08-18T22:56:56.674Z,96679.25
2022-08-18T22:59:26.974Z,96683.81
2022-08-18T23:01:57.181Z,96680.31
2022-08-18T23:04:26.287Z,96668.75
2022-08-18T23:06:55.558Z,96665.03
2022-08-18T23:09:26.630Z,96666.88
2022-08-18T23:11:58.144Z,96663.38
2022-08-18T23:14:26.828Z,96653.03
2022-08-18T23:16:55.318Z,96650.56
2022-08-18T23:19:23.801Z,96651.59
2022-08-18T23:21:52.846Z,96651.81
2022-08-18T23:24:22.201Z,96645.84
2022-08-18T23:26:52.084Z,96646.88
2022-08-18T23:29:22.780Z,96646.06
2022-08-18T23:31:51.928Z,96638.81
2022-08-18T23:34:27.196Z,96632.41
2022-08-18T23:36:58.774Z,96632.63
2022-08-18T23:39:28.062Z,96622.94
2022-08-18T23:41:58.337Z,96616.53
2022-08-18T23:44:28.170Z,96611.97
2022-08-18T23:46:57.906Z,96599.97
2022-08-18T23:49:29.085Z,96600.56
2022-08-18T23:51:59.119Z,96594.59
2022-08-18T23:54:30.181Z,96592.13
2022-08-18T23:57:00.243Z,96584.31
2022-08-18T23:59:29.403Z,96590.94
